Amherst, Wisconsin
Current Conditions -  °F | °C
As of 5:55 AM on Thursday 27 Nov 2014 (Local Time) from KSTE Reporting Station
Light Snow Light Snow  
Wind Chill:   Ceiling: 4600
Heat Index: 12°   Visibility: 5mi
Dew Point:   Wind: 8mph
Humidity: 84%   Direction: 320°NW
Pressure: 30.3"   Gusts: NA
Location:  44.45°N, 89.28°W
Report Text: KSTE 271155Z AUTO 32007KT 5SM -SN OVC046 M11/M13 A3030 RMK AO2 T11101132 11070 21110
Loading
Personal Weather Stations






























Interactive Weather Map New forecast layout! Learn more

10-Day Weather Forecast

Advertisements
Track Severe Weather on mobile